sensor_id;sensor_type;location;lat;lon;timestamp;P1;durP1;ratioP1;P2;durP2;ratioP2
51602;SDS011;37954;51.980;5.850;2022-10-23T00:00:37;5.05;;;4.53;;
51602;SDS011;37954;51.980;5.850;2022-10-23T00:04:49;7.95;;;5.00;;
51602;SDS011;37954;51.980;5.850;2022-10-23T00:09:03;6.50;;;5.50;;
51602;SDS011;37954;51.980;5.850;2022-10-23T00:13:16;8.07;;;5.47;;
51602;SDS011;37954;51.980;5.850;2022-10-23T00:17:28;7.35;;;5.43;;
51602;SDS011;37954;51.980;5.850;2022-10-23T00:21:42;8.27;;;5.72;;
51602;SDS011;37954;51.980;5.850;2022-10-23T00:25:54;8.00;;;4.82;;
51602;SDS011;37954;51.980;5.850;2022-10-23T00:30:06;11.02;;;4.72;;
51602;SDS011;37954;51.980;5.850;2022-10-23T00:34:18;6.82;;;5.25;;
51602;SDS011;37954;51.980;5.850;2022-10-23T00:38:30;11.02;;;5.35;;
51602;SDS011;37954;51.980;5.850;2022-10-23T00:42:41;6.43;;;5.07;;
51602;SDS011;37954;51.980;5.850;2022-10-23T00:46:53;9.18;;;6.05;;
51602;SDS011;37954;51.980;5.850;2022-10-23T00:51:05;7.50;;;5.65;;
51602;SDS011;37954;51.980;5.850;2022-10-23T00:55:18;7.95;;;5.43;;
51602;SDS011;37954;51.980;5.850;2022-10-23T00:59:31;7.72;;;4.47;;
51602;SDS011;37954;51.980;5.850;2022-10-23T01:03:43;6.10;;;4.78;;
51602;SDS011;37954;51.980;5.850;2022-10-23T01:07:59;8.00;;;4.93;;
51602;SDS011;37954;51.980;5.850;2022-10-23T01:17:05;5.72;;;4.88;;
51602;SDS011;37954;51.980;5.850;2022-10-23T01:21:54;6.47;;;4.95;;
51602;SDS011;37954;51.980;5.850;2022-10-23T01:30:47;12.05;;;5.43;;
51602;SDS011;37954;51.980;5.850;2022-10-23T01:35:02;12.20;;;5.05;;
51602;SDS011;37954;51.980;5.850;2022-10-23T01:39:29;5.88;;;5.28;;
51602;SDS011;37954;51.980;5.850;2022-10-23T01:43:58;10.52;;;5.28;;
51602;SDS011;37954;51.980;5.850;2022-10-23T01:48:17;6.25;;;5.07;;
51602;SDS011;37954;51.980;5.850;2022-10-23T01:52:32;5.50;;;5.00;;
51602;SDS011;37954;51.980;5.850;2022-10-23T01:56:47;6.93;;;5.10;;
51602;SDS011;37954;51.980;5.850;2022-10-23T02:01:05;8.45;;;5.00;;
51602;SDS011;37954;51.980;5.850;2022-10-23T02:05:29;7.55;;;5.80;;
51602;SDS011;37954;51.980;5.850;2022-10-23T02:09:42;8.10;;;5.70;;
51602;SDS011;37954;51.980;5.850;2022-10-23T02:14:15;12.13;;;6.00;;
51602;SDS011;37954;51.980;5.850;2022-10-23T02:18:33;10.65;;;6.00;;
51602;SDS011;37954;51.980;5.850;2022-10-23T02:23:33;7.97;;;6.30;;
51602;SDS011;37954;51.980;5.850;2022-10-23T02:27:23;8.68;;;6.15;;
51602;SDS011;37954;51.980;5.850;2022-10-23T02:31:45;13.07;;;6.90;;
51602;SDS011;37954;51.980;5.850;2022-10-23T02:35:56;9.00;;;6.18;;
51602;SDS011;37954;51.980;5.850;2022-10-23T02:40:08;9.43;;;6.72;;
51602;SDS011;37954;51.980;5.850;2022-10-23T02:44:37;7.05;;;6.30;;
51602;SDS011;37954;51.980;5.850;2022-10-23T02:53:49;8.45;;;6.75;;
51602;SDS011;37954;51.980;5.850;2022-10-23T02:58:27;11.05;;;7.13;;
51602;SDS011;37954;51.980;5.850;2022-10-23T03:07:17;9.18;;;6.15;;
51602;SDS011;37954;51.980;5.850;2022-10-23T03:11:29;9.82;;;7.07;;
51602;SDS011;37954;51.980;5.850;2022-10-23T03:15:41;7.93;;;7.03;;
51602;SDS011;37954;51.980;5.850;2022-10-23T03:19:57;10.77;;;6.20;;
51602;SDS011;37954;51.980;5.850;2022-10-23T03:24:08;8.43;;;7.22;;
51602;SDS011;37954;51.980;5.850;2022-10-23T03:28:26;10.88;;;7.38;;
51602;SDS011;37954;51.980;5.850;2022-10-23T03:32:37;8.35;;;7.38;;
51602;SDS011;37954;51.980;5.850;2022-10-23T03:36:49;6.68;;;5.95;;
51602;SDS011;37954;51.980;5.850;2022-10-23T03:41:03;11.70;;;6.75;;
51602;SDS011;37954;51.980;5.850;2022-10-23T03:45:15;8.20;;;6.70;;
51602;SDS011;37954;51.980;5.850;2022-10-23T03:49:27;12.90;;;7.07;;
51602;SDS011;37954;51.980;5.850;2022-10-23T03:53:45;8.65;;;6.72;;
51602;SDS011;37954;51.980;5.850;2022-10-23T03:57:56;7.13;;;6.05;;
51602;SDS011;37954;51.980;5.850;2022-10-23T04:02:09;15.15;;;6.95;;
51602;SDS011;37954;51.980;5.850;2022-10-23T04:06:20;8.05;;;6.35;;
51602;SDS011;37954;51.980;5.850;2022-10-23T04:10:32;9.00;;;6.95;;
51602;SDS011;37954;51.980;5.850;2022-10-23T04:14:44;11.07;;;6.85;;
51602;SDS011;37954;51.980;5.850;2022-10-23T04:18:56;7.80;;;7.00;;
51602;SDS011;37954;51.980;5.850;2022-10-23T04:23:07;10.13;;;6.75;;
51602;SDS011;37954;51.980;5.850;2022-10-23T04:27:19;11.70;;;6.53;;
51602;SDS011;37954;51.980;5.850;2022-10-23T04:31:31;8.45;;;6.63;;
51602;SDS011;37954;51.980;5.850;2022-10-23T04:35:43;11.25;;;6.53;;
51602;SDS011;37954;51.980;5.850;2022-10-23T04:39:55;6.82;;;5.93;;
51602;SDS011;37954;51.980;5.850;2022-10-23T04:44:06;9.38;;;5.45;;
51602;SDS011;37954;51.980;5.850;2022-10-23T04:48:21;7.43;;;5.65;;
51602;SDS011;37954;51.980;5.850;2022-10-23T04:53:01;8.65;;;5.95;;
51602;SDS011;37954;51.980;5.850;2022-10-23T04:57:32;9.55;;;6.43;;
51602;SDS011;37954;51.980;5.850;2022-10-23T05:01:52;9.70;;;6.28;;
51602;SDS011;37954;51.980;5.850;2022-10-23T05:06:07;6.50;;;5.68;;
51602;SDS011;37954;51.980;5.850;2022-10-23T05:10:55;9.70;;;6.10;;
51602;SDS011;37954;51.980;5.850;2022-10-23T05:15:06;11.70;;;6.85;;
51602;SDS011;37954;51.980;5.850;2022-10-23T05:19:23;7.40;;;5.55;;
51602;SDS011;37954;51.980;5.850;2022-10-23T05:23:38;10.15;;;5.85;;
51602;SDS011;37954;51.980;5.850;2022-10-23T05:27:52;6.75;;;5.35;;
51602;SDS011;37954;51.980;5.850;2022-10-23T05:32:05;8.95;;;5.55;;
51602;SDS011;37954;51.980;5.850;2022-10-23T05:36:21;7.82;;;5.18;;
51602;SDS011;37954;51.980;5.850;2022-10-23T05:40:39;7.65;;;5.40;;
51602;SDS011;37954;51.980;5.850;2022-10-23T05:44:57;7.07;;;4.82;;
51602;SDS011;37954;51.980;5.850;2022-10-23T05:49:43;6.03;;;5.30;;
51602;SDS011;37954;51.980;5.850;2022-10-23T05:54:04;9.52;;;5.00;;
51602;SDS011;37954;51.980;5.850;2022-10-23T05:58:24;12.15;;;6.47;;
51602;SDS011;37954;51.980;5.850;2022-10-23T06:02:45;7.75;;;5.05;;
51602;SDS011;37954;51.980;5.850;2022-10-23T06:07:12;8.50;;;5.63;;
51602;SDS011;37954;51.980;5.850;2022-10-23T06:11:27;6.45;;;5.50;;
51602;SDS011;37954;51.980;5.850;2022-10-23T06:15:43;7.03;;;5.68;;
51602;SDS011;37954;51.980;5.850;2022-10-23T06:20:01;10.93;;;6.15;;
51602;SDS011;37954;51.980;5.850;2022-10-23T06:24:17;6.43;;;5.45;;
51602;SDS011;37954;51.980;5.850;2022-10-23T06:28:33;10.82;;;5.60;;
51602;SDS011;37954;51.980;5.850;2022-10-23T06:32:45;9.73;;;5.68;;
51602;SDS011;37954;51.980;5.850;2022-10-23T06:36:58;9.77;;;6.13;;
51602;SDS011;37954;51.980;5.850;2022-10-23T06:41:17;7.53;;;5.43;;
51602;SDS011;37954;51.980;5.850;2022-10-23T06:45:35;6.55;;;5.25;;
51602;SDS011;37954;51.980;5.850;2022-10-23T06:49:56;8.98;;;5.78;;
51602;SDS011;37954;51.980;5.850;2022-10-23T06:54:08;8.32;;;5.20;;
51602;SDS011;37954;51.980;5.850;2022-10-23T06:58:33;9.80;;;5.68;;
51602;SDS011;37954;51.980;5.850;2022-10-23T07:02:54;6.97;;;5.28;;
51602;SDS011;37954;51.980;5.850;2022-10-23T07:07:06;6.00;;;5.20;;
51602;SDS011;37954;51.980;5.850;2022-10-23T07:11:26;9.63;;;4.95;;
51602;SDS011;37954;51.980;5.850;2022-10-23T07:15:40;7.68;;;4.78;;
51602;SDS011;37954;51.980;5.850;2022-10-23T07:19:57;7.82;;;5.10;;
51602;SDS011;37954;51.980;5.850;2022-10-23T07:24:09;7.60;;;4.93;;
51602;SDS011;37954;51.980;5.850;2022-10-23T07:28:23;6.90;;;5.13;;
51602;SDS011;37954;51.980;5.850;2022-10-23T07:32:35;7.72;;;5.10;;
51602;SDS011;37954;51.980;5.850;2022-10-23T07:37:06;6.82;;;5.70;;
51602;SDS011;37954;51.980;5.850;2022-10-23T07:41:18;8.07;;;4.97;;
51602;SDS011;37954;51.980;5.850;2022-10-23T07:45:30;14.48;;;4.88;;
51602;SDS011;37954;51.980;5.850;2022-10-23T07:49:48;6.50;;;4.95;;
51602;SDS011;37954;51.980;5.850;2022-10-23T07:53:59;7.90;;;4.47;;
51602;SDS011;37954;51.980;5.850;2022-10-23T07:58:31;6.38;;;4.80;;
51602;SDS011;37954;51.980;5.850;2022-10-23T08:02:49;6.47;;;4.28;;
51602;SDS011;37954;51.980;5.850;2022-10-23T08:07:01;6.63;;;5.03;;
51602;SDS011;37954;51.980;5.850;2022-10-23T08:11:20;6.03;;;4.30;;
51602;SDS011;37954;51.980;5.850;2022-10-23T08:15:39;7.32;;;4.68;;
51602;SDS011;37954;51.980;5.850;2022-10-23T08:20:05;7.55;;;4.40;;
51602;SDS011;37954;51.980;5.850;2022-10-23T08:24:23;8.85;;;4.88;;
51602;SDS011;37954;51.980;5.850;2022-10-23T08:28:35;5.95;;;4.30;;
51602;SDS011;37954;51.980;5.850;2022-10-23T08:32:47;6.18;;;3.92;;
51602;SDS011;37954;51.980;5.850;2022-10-23T08:36:59;9.90;;;4.20;;
51602;SDS011;37954;51.980;5.850;2022-10-23T08:41:14;4.35;;;3.95;;
51602;SDS011;37954;51.980;5.850;2022-10-23T08:45:57;6.65;;;4.13;;
51602;SDS011;37954;51.980;5.850;2022-10-23T08:50:37;5.20;;;3.63;;
51602;SDS011;37954;51.980;5.850;2022-10-23T08:59:45;5.60;;;3.60;;
51602;SDS011;37954;51.980;5.850;2022-10-23T09:03:58;4.18;;;3.30;;
51602;SDS011;37954;51.980;5.850;2022-10-23T09:12:47;5.07;;;3.58;;
51602;SDS011;37954;51.980;5.850;2022-10-23T09:21:14;4.18;;;3.13;;
51602;SDS011;37954;51.980;5.850;2022-10-23T09:25:27;5.80;;;3.03;;
51602;SDS011;37954;51.980;5.850;2022-10-23T09:29:48;8.25;;;3.53;;
51602;SDS011;37954;51.980;5.850;2022-10-23T09:34:03;4.20;;;3.47;;
51602;SDS011;37954;51.980;5.850;2022-10-23T09:38:21;8.48;;;4.05;;
51602;SDS011;37954;51.980;5.850;2022-10-23T09:42:48;5.68;;;3.47;;
51602;SDS011;37954;51.980;5.850;2022-10-23T09:56:02;5.07;;;3.55;;
51602;SDS011;37954;51.980;5.850;2022-10-23T10:00:22;4.20;;;3.15;;
51602;SDS011;37954;51.980;5.850;2022-10-23T10:04:37;6.55;;;3.20;;
51602;SDS011;37954;51.980;5.850;2022-10-23T10:08:52;8.95;;;3.30;;
51602;SDS011;37954;51.980;5.850;2022-10-23T10:13:17;10.13;;;3.55;;
51602;SDS011;37954;51.980;5.850;2022-10-23T10:31:18;5.88;;;3.50;;
51602;SDS011;37954;51.980;5.850;2022-10-23T10:35:54;3.28;;;2.92;;
51602;SDS011;37954;51.980;5.850;2022-10-23T10:40:27;6.28;;;3.53;;
51602;SDS011;37954;51.980;5.850;2022-10-23T10:58:47;4.25;;;2.85;;
51602;SDS011;37954;51.980;5.850;2022-10-23T11:07:33;4.78;;;2.78;;
51602;SDS011;37954;51.980;5.850;2022-10-23T11:11:48;3.30;;;2.75;;
51602;SDS011;37954;51.980;5.850;2022-10-23T11:16:00;5.72;;;2.65;;
51602;SDS011;37954;51.980;5.850;2022-10-23T11:20:34;4.40;;;2.70;;
51602;SDS011;37954;51.980;5.850;2022-10-23T11:25:12;6.80;;;3.13;;
51602;SDS011;37954;51.980;5.850;2022-10-23T11:34:30;3.70;;;2.75;;
51602;SDS011;37954;51.980;5.850;2022-10-23T11:38:52;5.57;;;2.97;;
51602;SDS011;37954;51.980;5.850;2022-10-23T11:43:09;4.72;;;3.33;;
51602;SDS011;37954;51.980;5.850;2022-10-23T11:47:31;3.30;;;2.83;;
51602;SDS011;37954;51.980;5.850;2022-10-23T11:52:03;3.80;;;2.67;;
51602;SDS011;37954;51.980;5.850;2022-10-23T12:00:33;2.78;;;2.35;;
51602;SDS011;37954;51.980;5.850;2022-10-23T12:04:49;2.75;;;2.35;;
51602;SDS011;37954;51.980;5.850;2022-10-23T12:09:04;2.83;;;2.45;;
51602;SDS011;37954;51.980;5.850;2022-10-23T12:13:27;3.90;;;2.30;;
51602;SDS011;37954;51.980;5.850;2022-10-23T12:31:48;5.25;;;2.30;;
51602;SDS011;37954;51.980;5.850;2022-10-23T12:36:24;8.75;;;2.95;;
51602;SDS011;37954;51.980;5.850;2022-10-23T12:41:03;3.03;;;2.30;;
51602;SDS011;37954;51.980;5.850;2022-10-23T12:45:31;3.60;;;2.40;;
51602;SDS011;37954;51.980;5.850;2022-10-23T12:49:48;6.50;;;2.30;;
51602;SDS011;37954;51.980;5.850;2022-10-23T12:54:02;3.28;;;2.65;;
51602;SDS011;37954;51.980;5.850;2022-10-23T12:58:24;6.93;;;2.78;;
51602;SDS011;37954;51.980;5.850;2022-10-23T13:02:40;3.17;;;2.20;;
51602;SDS011;37954;51.980;5.850;2022-10-23T13:06:52;3.72;;;2.25;;
51602;SDS011;37954;51.980;5.850;2022-10-23T13:11:06;2.92;;;2.25;;
51602;SDS011;37954;51.980;5.850;2022-10-23T13:15:25;4.45;;;3.03;;
51602;SDS011;37954;51.980;5.850;2022-10-23T13:19:51;4.07;;;2.70;;
51602;SDS011;37954;51.980;5.850;2022-10-23T13:24:02;2.90;;;2.45;;
51602;SDS011;37954;51.980;5.850;2022-10-23T13:28:21;3.53;;;2.58;;
51602;SDS011;37954;51.980;5.850;2022-10-23T13:32:35;4.35;;;2.30;;
51602;SDS011;37954;51.980;5.850;2022-10-23T13:37:29;2.72;;;2.30;;
51602;SDS011;37954;51.980;5.850;2022-10-23T13:41:38;4.18;;;2.47;;
51602;SDS011;37954;51.980;5.850;2022-10-23T13:45:51;4.18;;;1.98;;
51602;SDS011;37954;51.980;5.850;2022-10-23T13:50:03;2.70;;;2.10;;
51602;SDS011;37954;51.980;5.850;2022-10-23T13:54:27;2.97;;;1.90;;
51602;SDS011;37954;51.980;5.850;2022-10-23T13:58:39;1.90;;;1.73;;
51602;SDS011;37954;51.980;5.850;2022-10-23T14:02:52;2.17;;;1.63;;
51602;SDS011;37954;51.980;5.850;2022-10-23T14:07:08;2.78;;;2.10;;
51602;SDS011;37954;51.980;5.850;2022-10-23T14:11:20;2.25;;;2.05;;
51602;SDS011;37954;51.980;5.850;2022-10-23T14:15:32;3.40;;;2.35;;
51602;SDS011;37954;51.980;5.850;2022-10-23T14:19:43;1.80;;;1.70;;
51602;SDS011;37954;51.980;5.850;2022-10-23T14:23:56;2.70;;;1.88;;
51602;SDS011;37954;51.980;5.850;2022-10-23T14:28:07;2.33;;;2.05;;
51602;SDS011;37954;51.980;5.850;2022-10-23T14:32:19;3.25;;;1.60;;
51602;SDS011;37954;51.980;5.850;2022-10-23T14:36:30;2.50;;;2.00;;
51602;SDS011;37954;51.980;5.850;2022-10-23T14:41:00;1.85;;;1.60;;
51602;SDS011;37954;51.980;5.850;2022-10-23T14:45:12;2.88;;;1.70;;
51602;SDS011;37954;51.980;5.850;2022-10-23T14:49:23;3.05;;;1.85;;
51602;SDS011;37954;51.980;5.850;2022-10-23T14:53:35;3.72;;;1.90;;
51602;SDS011;37954;51.980;5.850;2022-10-23T14:57:47;3.38;;;2.08;;
51602;SDS011;37954;51.980;5.850;2022-10-23T15:01:58;3.08;;;2.25;;
51602;SDS011;37954;51.980;5.850;2022-10-23T15:06:10;4.85;;;2.08;;
51602;SDS011;37954;51.980;5.850;2022-10-23T15:10:28;2.55;;;2.20;;
51602;SDS011;37954;51.980;5.850;2022-10-23T15:14:40;2.28;;;2.08;;
51602;SDS011;37954;51.980;5.850;2022-10-23T15:18:51;2.33;;;2.13;;
51602;SDS011;37954;51.980;5.850;2022-10-23T15:23:03;2.10;;;1.90;;
51602;SDS011;37954;51.980;5.850;2022-10-23T15:27:14;3.58;;;3.10;;
51602;SDS011;37954;51.980;5.850;2022-10-23T15:35:53;2.20;;;1.98;;
51602;SDS011;37954;51.980;5.850;2022-10-23T15:40:06;3.67;;;2.13;;
51602;SDS011;37954;51.980;5.850;2022-10-23T15:44:19;2.58;;;2.10;;
51602;SDS011;37954;51.980;5.850;2022-10-23T15:48:32;3.10;;;2.15;;
51602;SDS011;37954;51.980;5.850;2022-10-23T15:52:43;2.90;;;2.10;;
51602;SDS011;37954;51.980;5.850;2022-10-23T15:56:55;2.80;;;2.03;;
51602;SDS011;37954;51.980;5.850;2022-10-23T16:01:07;2.90;;;2.47;;
51602;SDS011;37954;51.980;5.850;2022-10-23T16:05:19;2.47;;;2.17;;
51602;SDS011;37954;51.980;5.850;2022-10-23T16:09:31;2.42;;;1.95;;
51602;SDS011;37954;51.980;5.850;2022-10-23T16:13:43;7.20;;;2.50;;
51602;SDS011;37954;51.980;5.850;2022-10-23T16:17:55;7.05;;;2.30;;
51602;SDS011;37954;51.980;5.850;2022-10-23T16:22:06;3.97;;;2.10;;
51602;SDS011;37954;51.980;5.850;2022-10-23T16:26:18;3.53;;;2.83;;
51602;SDS011;37954;51.980;5.850;2022-10-23T16:30:31;3.92;;;3.05;;
51602;SDS011;37954;51.980;5.850;2022-10-23T16:34:42;4.32;;;2.30;;
51602;SDS011;37954;51.980;5.850;2022-10-23T16:38:54;3.55;;;2.25;;
51602;SDS011;37954;51.980;5.850;2022-10-23T16:43:26;2.97;;;2.50;;
51602;SDS011;37954;51.980;5.850;2022-10-23T16:47:52;2.55;;;2.35;;
51602;SDS011;37954;51.980;5.850;2022-10-23T16:52:03;5.03;;;2.38;;
51602;SDS011;37954;51.980;5.850;2022-10-23T16:56:16;4.47;;;2.55;;
51602;SDS011;37954;51.980;5.850;2022-10-23T17:00:29;4.55;;;3.17;;
51602;SDS011;37954;51.980;5.850;2022-10-23T17:04:45;5.32;;;3.55;;
51602;SDS011;37954;51.980;5.850;2022-10-23T17:08:57;4.53;;;2.95;;
51602;SDS011;37954;51.980;5.850;2022-10-23T17:13:10;7.85;;;2.90;;
51602;SDS011;37954;51.980;5.850;2022-10-23T17:17:22;4.68;;;2.88;;
51602;SDS011;37954;51.980;5.850;2022-10-23T17:21:34;3.70;;;3.13;;
51602;SDS011;37954;51.980;5.850;2022-10-23T17:25:48;5.53;;;2.60;;
51602;SDS011;37954;51.980;5.850;2022-10-23T17:30:00;3.08;;;2.70;;
51602;SDS011;37954;51.980;5.850;2022-10-23T17:34:12;4.15;;;2.80;;
51602;SDS011;37954;51.980;5.850;2022-10-23T17:38:27;3.08;;;2.60;;
51602;SDS011;37954;51.980;5.850;2022-10-23T17:42:39;4.00;;;2.67;;
51602;SDS011;37954;51.980;5.850;2022-10-23T17:46:51;3.58;;;2.63;;
51602;SDS011;37954;51.980;5.850;2022-10-23T17:55:17;7.43;;;5.72;;
51602;SDS011;37954;51.980;5.850;2022-10-23T17:59:29;4.38;;;2.25;;
51602;SDS011;37954;51.980;5.850;2022-10-23T18:03:41;3.55;;;2.95;;
51602;SDS011;37954;51.980;5.850;2022-10-23T18:07:52;4.70;;;4.03;;
51602;SDS011;37954;51.980;5.850;2022-10-23T18:12:04;4.00;;;3.20;;
51602;SDS011;37954;51.980;5.850;2022-10-23T18:16:15;2.53;;;2.33;;
51602;SDS011;37954;51.980;5.850;2022-10-23T18:20:27;4.78;;;3.72;;
51602;SDS011;37954;51.980;5.850;2022-10-23T18:24:39;3.58;;;2.65;;
51602;SDS011;37954;51.980;5.850;2022-10-23T18:28:51;3.20;;;2.65;;
51602;SDS011;37954;51.980;5.850;2022-10-23T18:33:07;4.05;;;2.75;;
51602;SDS011;37954;51.980;5.850;2022-10-23T18:37:18;7.05;;;4.90;;
51602;SDS011;37954;51.980;5.850;2022-10-23T18:41:34;5.90;;;4.85;;
51602;SDS011;37954;51.980;5.850;2022-10-23T18:45:46;6.40;;;3.22;;
51602;SDS011;37954;51.980;5.850;2022-10-23T18:49:58;5.40;;;3.60;;
51602;SDS011;37954;51.980;5.850;2022-10-23T18:54:11;3.55;;;2.38;;
51602;SDS011;37954;51.980;5.850;2022-10-23T18:58:24;6.53;;;3.50;;
51602;SDS011;37954;51.980;5.850;2022-10-23T19:02:35;10.65;;;7.28;;
51602;SDS011;37954;51.980;5.850;2022-10-23T19:06:48;4.95;;;3.67;;
51602;SDS011;37954;51.980;5.850;2022-10-23T19:11:00;5.57;;;3.60;;
51602;SDS011;37954;51.980;5.850;2022-10-23T19:15:13;5.18;;;2.60;;
51602;SDS011;37954;51.980;5.850;2022-10-23T19:19:26;3.40;;;2.17;;
51602;SDS011;37954;51.980;5.850;2022-10-23T19:23:41;3.75;;;2.85;;
51602;SDS011;37954;51.980;5.850;2022-10-23T19:27:54;4.43;;;2.55;;
51602;SDS011;37954;51.980;5.850;2022-10-23T19:32:07;3.45;;;2.30;;
51602;SDS011;37954;51.980;5.850;2022-10-23T19:36:18;2.75;;;2.03;;
51602;SDS011;37954;51.980;5.850;2022-10-23T19:40:33;2.33;;;1.95;;
51602;SDS011;37954;51.980;5.850;2022-10-23T19:44:45;2.20;;;1.95;;
51602;SDS011;37954;51.980;5.850;2022-10-23T19:48:56;3.13;;;2.30;;
51602;SDS011;37954;51.980;5.850;2022-10-23T19:53:08;3.30;;;1.65;;
51602;SDS011;37954;51.980;5.850;2022-10-23T19:57:20;3.75;;;2.00;;
51602;SDS011;37954;51.980;5.850;2022-10-23T20:01:33;3.45;;;2.05;;
51602;SDS011;37954;51.980;5.850;2022-10-23T20:05:44;3.50;;;1.88;;
51602;SDS011;37954;51.980;5.850;2022-10-23T20:09:57;1.67;;;1.55;;
51602;SDS011;37954;51.980;5.850;2022-10-23T20:14:08;3.45;;;1.73;;
51602;SDS011;37954;51.980;5.850;2022-10-23T20:18:20;3.38;;;1.75;;
51602;SDS011;37954;51.980;5.850;2022-10-23T20:22:31;3.33;;;1.90;;
51602;SDS011;37954;51.980;5.850;2022-10-23T20:26:45;2.22;;;1.50;;
51602;SDS011;37954;51.980;5.850;2022-10-23T20:30:58;1.63;;;1.40;;
51602;SDS011;37954;51.980;5.850;2022-10-23T20:35:09;2.17;;;1.63;;
51602;SDS011;37954;51.980;5.850;2022-10-23T20:39:22;1.30;;;1.20;;
51602;SDS011;37954;51.980;5.850;2022-10-23T20:43:39;3.08;;;1.00;;
51602;SDS011;37954;51.980;5.850;2022-10-23T20:47:51;1.20;;;1.10;;
51602;SDS011;37954;51.980;5.850;2022-10-23T20:52:02;1.60;;;1.17;;
51602;SDS011;37954;51.980;5.850;2022-10-23T20:56:15;2.85;;;1.02;;
51602;SDS011;37954;51.980;5.850;2022-10-23T21:00:33;1.17;;;1.05;;
51602;SDS011;37954;51.980;5.850;2022-10-23T21:04:44;1.23;;;1.13;;
51602;SDS011;37954;51.980;5.850;2022-10-23T21:08:59;1.30;;;1.10;;
51602;SDS011;37954;51.980;5.850;2022-10-23T21:13:12;2.50;;;1.20;;
51602;SDS011;37954;51.980;5.850;2022-10-23T21:17:24;0.93;;;0.93;;
51602;SDS011;37954;51.980;5.850;2022-10-23T21:21:35;2.63;;;1.40;;
51602;SDS011;37954;51.980;5.850;2022-10-23T21:25:47;1.77;;;1.40;;
51602;SDS011;37954;51.980;5.850;2022-10-23T21:29:59;1.13;;;0.90;;
51602;SDS011;37954;51.980;5.850;2022-10-23T21:34:10;1.95;;;1.10;;
51602;SDS011;37954;51.980;5.850;2022-10-23T21:38:22;1.55;;;1.20;;
51602;SDS011;37954;51.980;5.850;2022-10-23T21:42:34;2.50;;;0.98;;
51602;SDS011;37954;51.980;5.850;2022-10-23T21:46:45;3.47;;;1.20;;
51602;SDS011;37954;51.980;5.850;2022-10-23T21:50:57;2.05;;;1.05;;
51602;SDS011;37954;51.980;5.850;2022-10-23T21:55:10;1.20;;;1.08;;
51602;SDS011;37954;51.980;5.850;2022-10-23T21:59:23;2.10;;;1.38;;
51602;SDS011;37954;51.980;5.850;2022-10-23T22:03:40;3.40;;;1.70;;
51602;SDS011;37954;51.980;5.850;2022-10-23T22:07:52;4.43;;;1.92;;
51602;SDS011;37954;51.980;5.850;2022-10-23T22:12:03;3.88;;;1.98;;
51602;SDS011;37954;51.980;5.850;2022-10-23T22:16:15;5.72;;;1.67;;
51602;SDS011;37954;51.980;5.850;2022-10-23T22:20:27;2.50;;;1.67;;
51602;SDS011;37954;51.980;5.850;2022-10-23T22:24:38;3.75;;;1.70;;
51602;SDS011;37954;51.980;5.850;2022-10-23T22:28:51;1.70;;;1.50;;
51602;SDS011;37954;51.980;5.850;2022-10-23T22:33:04;2.33;;;1.65;;
51602;SDS011;37954;51.980;5.850;2022-10-23T22:37:16;2.95;;;2.05;;
51602;SDS011;37954;51.980;5.850;2022-10-23T22:41:27;5.30;;;2.22;;
51602;SDS011;37954;51.980;5.850;2022-10-23T22:45:39;4.90;;;1.95;;
51602;SDS011;37954;51.980;5.850;2022-10-23T22:49:50;3.92;;;2.28;;
51602;SDS011;37954;51.980;5.850;2022-10-23T22:54:02;5.53;;;2.30;;
51602;SDS011;37954;51.980;5.850;2022-10-23T22:58:14;4.50;;;2.10;;
51602;SDS011;37954;51.980;5.850;2022-10-23T23:02:25;2.60;;;1.90;;
51602;SDS011;37954;51.980;5.850;2022-10-23T23:06:37;3.88;;;2.40;;
51602;SDS011;37954;51.980;5.850;2022-10-23T23:10:53;5.65;;;2.30;;
51602;SDS011;37954;51.980;5.850;2022-10-23T23:15:05;4.82;;;2.10;;
51602;SDS011;37954;51.980;5.850;2022-10-23T23:19:17;3.60;;;2.38;;
51602;SDS011;37954;51.980;5.850;2022-10-23T23:23:30;6.35;;;2.60;;
51602;SDS011;37954;51.980;5.850;2022-10-23T23:27:42;3.45;;;2.28;;
51602;SDS011;37954;51.980;5.850;2022-10-23T23:31:54;2.53;;;2.05;;
51602;SDS011;37954;51.980;5.850;2022-10-23T23:36:06;4.68;;;2.00;;
51602;SDS011;37954;51.980;5.850;2022-10-23T23:40:19;4.78;;;2.25;;
51602;SDS011;37954;51.980;5.850;2022-10-23T23:44:31;6.05;;;2.47;;
51602;SDS011;37954;51.980;5.850;2022-10-23T23:48:42;4.03;;;2.22;;
51602;SDS011;37954;51.980;5.850;2022-10-23T23:52:58;3.35;;;2.05;;
51602;SDS011;37954;51.980;5.850;2022-10-23T23:57:10;4.13;;;2.72;;
